Time,TemperatureF,DewpointF,PressureIn,WindDirection,WindDirectionDegrees,WindSpeedMPH,WindSpeedGustMPH,Humidity,HourlyPrecipIn,Conditions,Clouds,dailyrainin,SoftwareType,DateUTC
2013-01-21 00:01:00,15.7,11.2,30.17,WNW,298,0.0,1.0,82,0.00,-SN,OVC,0.00,WeatherDisplay:10.37,2013-01-21 05:01:00,
2013-01-21 00:06:00,15.8,11.6,30.17,WNW,298,0.0,2.0,83,0.00,-SN,OVC,0.00,WeatherDisplay:10.37,2013-01-21 05:06:00,
2013-01-21 00:11:00,15.8,11.6,30.17,WNW,298,1.0,2.0,83,0.00,-SN,OVC,0.00,WeatherDisplay:10.37,2013-01-21 05:11:00,
2013-01-21 00:16:00,15.9,11.7,30.17,WNW,298,2.0,3.0,83,0.00,-SN,OVC,0.00,WeatherDisplay:10.37,2013-01-21 05:16:00,
2013-01-21 00:21:00,15.9,11.7,30.16,WNW,298,0.0,3.0,83,0.00,-SN,OVC,0.00,WeatherDisplay:10.37,2013-01-21 05:21:00,
2013-01-21 00:26:00,15.9,11.7,30.16,WNW,298,2.0,4.0,83,0.00,-SN,OVC,0.00,WeatherDisplay:10.37,2013-01-21 05:26:00,
2013-01-21 00:31:00,15.9,11.7,30.16,WNW,298,1.0,2.0,83,0.00,-SN,OVC,0.00,WeatherDisplay:10.37,2013-01-21 05:31:00,
2013-01-21 00:36:00,15.9,11.7,30.15,WNW,298,1.0,4.0,83,0.00,-SN,OVC,0.00,WeatherDisplay:10.37,2013-01-21 05:36:00,
2013-01-21 00:41:00,15.9,11.7,30.15,WNW,298,0.0,2.0,83,0.00,-SN,OVC,0.00,WeatherDisplay:10.37,2013-01-21 05:41:00,
2013-01-21 00:46:00,15.9,11.7,30.15,WNW,298,2.0,3.0,83,0.00,-SN,OVC,0.00,WeatherDisplay:10.37,2013-01-21 05:46:00,
2013-01-21 00:51:00,15.9,11.7,30.14,WNW,298,0.0,3.0,83,0.00,-SN,OVC,0.00,WeatherDisplay:10.37,2013-01-21 05:51:00,
2013-01-21 00:56:00,15.9,11.7,30.14,WNW,298,1.0,2.0,83,0.00,-SN,OVC,0.00,WeatherDisplay:10.37,2013-01-21 05:56:00,
2013-01-21 01:01:00,15.8,11.6,30.14,WNW,298,2.0,4.0,83,0.00,-SN,OVC,0.00,WeatherDisplay:10.37,2013-01-21 06:01:00,
2013-01-21 01:06:00,15.9,11.3,30.14,WNW,298,2.0,5.0,82,0.00,-SN,OVC,0.00,WeatherDisplay:10.37,2013-01-21 06:06:00,
2013-01-21 01:11:00,15.9,11.4,30.14,WNW,298,2.0,4.0,82,0.00,-SN,OVC,0.00,WeatherDisplay:10.37,2013-01-21 06:11:00,
2013-01-21 01:16:00,15.9,11.4,30.13,WNW,298,2.0,5.0,82,0.00,-SN,OVC,0.00,WeatherDisplay:10.37,2013-01-21 06:16:00,
2013-01-21 01:21:00,15.8,11.3,30.13,WNW,298,2.0,5.0,82,0.00,-SN,OVC,0.00,WeatherDisplay:10.37,2013-01-21 06:21:00,
2013-01-21 01:26:00,15.8,11.3,30.13,WNW,298,2.0,4.0,82,0.00,-SN,OVC,0.00,WeatherDisplay:10.37,2013-01-21 06:26:00,
2013-01-21 01:31:00,15.8,11.6,30.13,WNW,298,1.0,4.0,83,0.00,-SN,OVC,0.00,WeatherDisplay:10.37,2013-01-21 06:31:00,
2013-01-21 01:36:00,15.8,11.6,30.13,WNW,298,2.0,4.0,83,0.00,-SN,OVC,0.00,WeatherDisplay:10.37,2013-01-21 06:36:00,
2013-01-21 01:41:00,15.8,11.5,30.13,WNW,298,5.0,6.0,83,0.00,-SN,OVC,0.00,WeatherDisplay:10.37,2013-01-21 06:41:00,
2013-01-21 01:46:00,15.7,11.7,30.12,WNW,297,3.0,5.0,84,0.00,-SN,OVC,0.00,WeatherDisplay:10.37,2013-01-21 06:46:00,
2013-01-21 01:51:00,15.6,11.7,30.12,WNW,292,3.0,7.0,84,0.00,-SN,OVC,0.00,WeatherDisplay:10.37,2013-01-21 06:51:00,
2013-01-21 01:56:00,15.6,11.4,30.12,WNW,290,5.0,6.0,83,0.00,-SN,OVC,0.00,WeatherDisplay:10.37,2013-01-21 06:56:00,
2013-01-21 02:01:00,15.6,11.6,30.12,WNW,294,6.0,7.0,84,0.00,-SN,OVC,0.00,WeatherDisplay:10.37,2013-01-21 07:01:00,
2013-01-21 02:06:00,15.5,11.5,30.12,WNW,295,5.0,8.0,84,0.00,-SN,OVC,0.00,WeatherDisplay:10.37,2013-01-21 07:06:00,
2013-01-21 02:11:00,15.5,11.6,30.12,WNW,293,3.0,5.0,84,0.00,-SN,OVC,0.00,WeatherDisplay:10.37,2013-01-21 07:11:00,
2013-01-21 02:16:00,15.5,11.5,30.12,WNW,293,5.0,6.0,84,0.00,-SN,OVC,0.00,WeatherDisplay:10.37,2013-01-21 07:16:00,
2013-01-21 02:21:00,15.5,11.5,30.12,WNW,297,3.0,5.0,84,0.00,-SN,OVC,0.00,WeatherDisplay:10.37,2013-01-21 07:21:00,
2013-01-21 02:26:00,15.5,11.5,30.12,WNW,299,3.0,4.0,84,0.00,-SN,OVC,0.00,WeatherDisplay:10.37,2013-01-21 07:26:00,
2013-01-21 02:31:00,15.5,11.8,30.12,WNW,300,1.0,3.0,85,0.00,-SN,OVC,0.00,WeatherDisplay:10.37,2013-01-21 07:31:00,
2013-01-21 02:36:00,15.5,11.8,30.12,WNW,300,3.0,4.0,85,0.00,-SN,OVC,0.00,WeatherDisplay:10.37,2013-01-21 07:36:00,
2013-01-21 02:41:00,15.5,11.8,30.12,WNW,299,3.0,5.0,85,0.00,-SN,OVC,0.00,WeatherDisplay:10.37,2013-01-21 07:41:00,
2013-01-21 02:46:00,15.5,11.8,30.12,WNW,292,3.0,6.0,85,0.00,-SN,OVC,0.00,WeatherDisplay:10.37,2013-01-21 07:46:00,
2013-01-21 02:51:00,15.5,11.8,30.12,WNW,289,3.0,6.0,85,0.00,-SN,OVC,0.00,WeatherDisplay:10.37,2013-01-21 07:51:00,
2013-01-21 02:56:00,15.4,11.5,30.12,WNW,288,6.0,9.0,84,0.00,-SN,OVC,0.00,WeatherDisplay:10.37,2013-01-21 07:56:00,
2013-01-21 03:01:00,15.4,11.4,30.12,WNW,292,6.0,8.0,84,0.00,-SN,OVC,0.00,WeatherDisplay:10.37,2013-01-21 08:01:00,
2013-01-21 03:06:00,15.4,11.4,30.11,WNW,294,5.0,8.0,84,0.00,-SN,OVC,0.00,WeatherDisplay:10.37,2013-01-21 08:06:00,
2013-01-21 03:11:00,15.4,11.4,30.12,WNW,299,6.0,8.0,84,0.00,-SN,OVC,0.00,WeatherDisplay:10.37,2013-01-21 08:11:00,
2013-01-21 03:16:00,15.3,11.3,30.11,WNW,301,5.0,9.0,84,0.00,-SN,OVC,0.00,WeatherDisplay:10.37,2013-01-21 08:16:00,
2013-01-21 03:21:00,15.3,11.3,30.11,WNW,297,5.0,7.0,84,0.00,-SN,OVC,0.00,WeatherDisplay:10.37,2013-01-21 08:21:00,
2013-01-21 03:26:00,15.2,11.5,30.11,WNW,299,5.0,7.0,85,0.00,-SN,OVC,0.00,WeatherDisplay:10.37,2013-01-21 08:26:00,
2013-01-21 03:31:00,15.2,11.5,30.11,WNW,300,6.0,8.0,85,0.00,-SN,OVC,0.00,WeatherDisplay:10.37,2013-01-21 08:31:00,
2013-01-21 03:36:00,15.1,11.4,30.10,WNW,294,6.0,8.0,85,0.00,-SN,OVC,0.00,WeatherDisplay:10.37,2013-01-21 08:36:00,
2013-01-21 03:41:00,15.0,11.3,30.10,WNW,292,5.0,6.0,85,0.00,-SN,OVC,0.00,WeatherDisplay:10.37,2013-01-21 08:41:00,
2013-01-21 03:46:00,15.0,11.3,30.10,WNW,298,3.0,7.0,85,0.00,-SN,OVC,0.00,WeatherDisplay:10.37,2013-01-21 08:46:00,
2013-01-21 03:51:00,15.0,11.6,30.10,WNW,299,2.0,6.0,86,0.00,-SN,OVC,0.00,WeatherDisplay:10.37,2013-01-21 08:51:00,
2013-01-21 03:56:00,15.0,11.6,30.10,WNW,298,5.0,6.0,86,0.00,-SN,OVC,0.00,WeatherDisplay:10.37,2013-01-21 08:56:00,
2013-01-21 04:01:00,15.0,11.6,30.10,WNW,303,3.0,6.0,86,0.00,-SN,OVC,0.00,WeatherDisplay:10.37,2013-01-21 09:01:00,
2013-01-21 04:06:00,15.0,11.6,30.09,NW,305,5.0,7.0,86,0.00,-SN,OVC,0.00,WeatherDisplay:10.37,2013-01-21 09:06:00,
2013-01-21 04:11:00,14.9,11.5,30.09,WNW,293,5.0,6.0,86,0.00,-SN,OVC,0.00,WeatherDisplay:10.37,2013-01-21 09:11:00,
2013-01-21 04:16:00,14.9,11.5,30.09,WNW,291,6.0,12.0,86,0.00,-SN,OVC,0.00,WeatherDisplay:10.37,2013-01-21 09:16:00,
2013-01-21 04:21:00,14.8,11.4,30.09,WNW,294,6.0,10.0,86,0.00,-SN,OVC,0.00,WeatherDisplay:10.37,2013-01-21 09:21:00,
2013-01-21 04:26:00,14.8,11.4,30.09,WNW,296,5.0,8.0,86,0.00,-SN,OVC,0.00,WeatherDisplay:10.37,2013-01-21 09:26:00,
2013-01-21 04:31:00,14.8,11.4,30.08,WNW,296,6.0,8.0,86,0.00,-SN,OVC,0.00,WeatherDisplay:10.37,2013-01-21 09:31:00,
2013-01-21 04:36:00,14.8,11.4,30.08,NW,304,6.0,7.0,86,0.00,-SN,OVC,0.00,WeatherDisplay:10.37,2013-01-21 09:36:00,
2013-01-21 04:41:00,14.8,11.3,30.08,WNW,301,6.0,10.0,86,0.00,-SN,OVC,0.00,WeatherDisplay:10.37,2013-01-21 09:41:00,
2013-01-21 04:46:00,14.7,11.3,30.08,WNW,297,9.0,12.0,86,0.00,-SN,OVC,0.00,WeatherDisplay:10.37,2013-01-21 09:46:00,
2013-01-21 04:51:00,14.7,11.2,30.08,WNW,292,5.0,8.0,86,0.00,-SN,OVC,0.00,WeatherDisplay:10.37,2013-01-21 09:51:00,
2013-01-21 04:56:00,14.6,11.2,30.08,WNW,291,7.0,12.0,86,0.00,-SN,OVC,0.00,WeatherDisplay:10.37,2013-01-21 09:56:00,
2013-01-21 05:01:00,14.5,11.1,30.08,WNW,296,7.0,10.0,86,0.00,-SN,OVC,0.00,WeatherDisplay:10.37,2013-01-21 10:01:00,
2013-01-21 05:06:00,14.5,11.1,30.08,WNW,295,6.0,9.0,86,0.00,-SN,OVC,0.00,WeatherDisplay:10.37,2013-01-21 10:06:00,
2013-01-21 05:11:00,14.5,11.1,30.08,WNW,294,6.0,9.0,86,0.00,-SN,OVC,0.00,WeatherDisplay:10.37,2013-01-21 10:11:00,
2013-01-21 05:16:00,14.5,11.1,30.08,WNW,295,6.0,9.0,86,0.00,-SN,OVC,0.00,WeatherDisplay:10.37,2013-01-21 10:16:00,
2013-01-21 05:21:00,14.5,11.0,30.08,WNW,296,5.0,7.0,86,0.00,-SN,OVC,0.00,WeatherDisplay:10.37,2013-01-21 10:21:00,
2013-01-21 05:26:00,14.4,11.0,30.08,WNW,295,5.0,6.0,86,0.00,-SN,OVC,0.00,WeatherDisplay:10.37,2013-01-21 10:26:00,
2013-01-21 05:31:00,14.4,11.0,30.08,WNW,296,5.0,7.0,86,0.00,-SN,OVC,0.00,WeatherDisplay:10.37,2013-01-21 10:31:00,
2013-01-21 05:36:00,14.4,11.0,30.07,WNW,297,5.0,7.0,86,0.00,-SN,OVC,0.00,WeatherDisplay:10.37,2013-01-21 10:36:00,
2013-01-21 05:41:00,14.4,10.9,30.07,WNW,299,6.0,8.0,86,0.00,-SN,OVC,0.00,WeatherDisplay:10.37,2013-01-21 10:41:00,
2013-01-21 05:46:00,14.3,10.9,30.07,WNW,299,3.0,8.0,86,0.00,-SN,OVC,0.00,WeatherDisplay:10.37,2013-01-21 10:46:00,
2013-01-21 05:51:00,14.3,10.9,30.07,NW,304,6.0,7.0,86,0.00,-SN,OVC,0.00,WeatherDisplay:10.37,2013-01-21 10:51:00,
2013-01-21 05:56:00,14.2,10.8,30.07,NW,305,5.0,8.0,86,0.00,-SN,OVC,0.00,WeatherDisplay:10.37,2013-01-21 10:56:00,
2013-01-21 06:01:00,14.2,10.8,30.07,WNW,299,5.0,7.0,86,0.00,-SN,OVC,0.00,WeatherDisplay:10.37,2013-01-21 11:01:00,
2013-01-21 06:06:00,14.1,10.7,30.07,WNW,299,6.0,8.0,86,0.00,-SN,OVC,0.00,WeatherDisplay:10.37,2013-01-21 11:06:00,
2013-01-21 06:11:00,14.0,10.6,30.07,WNW,302,5.0,6.0,86,0.00,-SN,OVC,0.00,WeatherDisplay:10.37,2013-01-21 11:11:00,
2013-01-21 06:16:00,14.0,10.6,30.07,WNW,301,6.0,9.0,86,0.00,-SN,OVC,0.00,WeatherDisplay:10.37,2013-01-21 11:16:00,
2013-01-21 06:21:00,14.0,10.8,30.07,WNW,297,7.0,10.0,87,0.00,-SN,OVC,0.00,WeatherDisplay:10.37,2013-01-21 11:21:00,
2013-01-21 06:26:00,13.9,10.8,30.07,WNW,291,6.0,8.0,87,0.00,-SN,OVC,0.00,WeatherDisplay:10.37,2013-01-21 11:26:00,
2013-01-21 06:31:00,13.9,10.5,30.07,WNW,292,6.0,8.0,86,0.00,-SN,OVC,0.00,WeatherDisplay:10.37,2013-01-21 11:31:00,
2013-01-21 06:36:00,13.8,10.4,30.06,WNW,296,6.0,8.0,86,0.00,-SN,OVC,0.00,WeatherDisplay:10.37,2013-01-21 11:36:00,
2013-01-21 06:46:00,13.7,10.3,30.07,WNW,296,5.0,7.0,86,0.00,-SN,OVC,0.00,WeatherDisplay:10.37,2013-01-21 11:46:00,
2013-01-21 06:51:00,13.7,10.3,30.07,WNW,291,6.0,8.0,86,0.00,-SN,OVC,0.00,WeatherDisplay:10.37,2013-01-21 11:51:00,
2013-01-21 06:56:00,13.6,10.2,30.07,WNW,292,6.0,7.0,86,0.00,-SN,OVC,0.00,WeatherDisplay:10.37,2013-01-21 11:56:00,
2013-01-21 07:01:00,13.5,10.1,30.07,WNW,294,5.0,8.0,86,0.00,-SN,OVC,0.00,WeatherDisplay:10.37,2013-01-21 12:01:00,
2013-01-21 07:06:00,13.5,10.1,30.07,WNW,298,5.0,8.0,86,0.00,-SN,OVC,0.00,WeatherDisplay:10.37,2013-01-21 12:06:00,
2013-01-21 07:11:00,13.5,10.1,30.07,WNW,298,5.0,8.0,86,0.00,-SN,OVC,0.00,WeatherDisplay:10.37,2013-01-21 12:11:00,
2013-01-21 07:16:00,13.6,10.5,30.07,WNW,298,5.0,8.0,87,0.00,-SN,OVC,0.00,WeatherDisplay:10.37,2013-01-21 12:16:00,
2013-01-21 07:21:00,13.6,10.5,30.07,WNW,296,3.0,9.0,87,0.00,-SN,OVC,0.00,WeatherDisplay:10.37,2013-01-21 12:21:00,
2013-01-21 07:26:00,13.6,10.5,30.07,WNW,296,5.0,8.0,87,0.00,-SN,OVC,0.00,WeatherDisplay:10.37,2013-01-21 12:26:00,
2013-01-21 07:31:00,13.6,10.5,30.07,WNW,294,5.0,8.0,87,0.00,-SN,OVC,0.00,WeatherDisplay:10.37,2013-01-21 12:31:00,
2013-01-21 07:36:00,13.7,10.5,30.06,WNW,295,5.0,8.0,87,0.00,-SN,OVC,0.00,WeatherDisplay:10.37,2013-01-21 12:36:00,
2013-01-21 07:41:00,13.6,10.5,30.06,WNW,302,5.0,6.0,87,0.00,-SN,OVC,0.00,WeatherDisplay:10.37,2013-01-21 12:41:00,
2013-01-21 07:46:00,13.6,10.5,30.06,WNW,299,6.0,7.0,87,0.00,-SN,OVC,0.00,WeatherDisplay:10.37,2013-01-21 12:46:00,
2013-01-21 07:51:00,13.6,10.5,30.06,WNW,297,7.0,9.0,87,0.00,-SN,OVC,0.00,WeatherDisplay:10.37,2013-01-21 12:51:00,
2013-01-21 07:56:00,13.5,10.4,30.06,WNW,300,5.0,8.0,87,0.00,-SN,OVC,0.00,WeatherDisplay:10.37,2013-01-21 12:56:00,
2013-01-21 08:01:00,13.5,10.3,30.06,NW,307,3.0,7.0,87,0.00,-SN,OVC,0.00,WeatherDisplay:10.37,2013-01-21 13:01:00,
2013-01-21 08:06:00,13.0,9.6,30.06,NW,322,6.0,9.0,86,0.00,-SN,OVC,0.00,WeatherDisplay:10.37,2013-01-21 13:06:00,
2013-01-21 08:11:00,12.6,9.2,30.06,NW,317,7.0,9.0,86,0.00,-SN,OVC,0.00,WeatherDisplay:10.37,2013-01-21 13:11:00,
2013-01-21 08:16:00,12.4,9.0,30.06,NW,315,6.0,7.0,86,0.00,-SN,OVC,0.00,WeatherDisplay:10.37,2013-01-21 13:16:00,
2013-01-21 08:21:00,12.3,8.9,30.06,NW,322,6.0,10.0,86,0.00,-SN,OVC,0.00,WeatherDisplay:10.37,2013-01-21 13:21:00,
2013-01-21 08:26:00,12.2,8.8,30.07,NW,317,6.0,9.0,86,0.00,-SN,OVC,0.00,WeatherDisplay:10.37,2013-01-21 13:26:00,
2013-01-21 08:31:00,12.1,8.7,30.06,NW,307,5.0,7.0,86,0.00,-SN,OVC,0.00,WeatherDisplay:10.37,2013-01-21 13:31:00,
2013-01-21 08:36:00,12.1,8.7,30.06,NW,319,6.0,9.0,86,0.00,-SN,OVC,0.00,WeatherDisplay:10.37,2013-01-21 13:36:00,
2013-01-21 08:41:00,12.1,8.7,30.06,NW,314,5.0,8.0,86,0.00,-SN,OVC,0.00,WeatherDisplay:10.37,2013-01-21 13:41:00,
2013-01-21 08:46:00,11.9,8.6,30.06,NW,307,6.0,9.0,86,0.00,-SN,OVC,0.00,WeatherDisplay:10.37,2013-01-21 13:46:00,
2013-01-21 08:51:00,11.9,8.5,30.06,NW,308,6.0,8.0,86,0.00,-SN,OVC,0.00,WeatherDisplay:10.37,2013-01-21 13:51:00,
2013-01-21 08:56:00,11.8,8.5,30.06,NW,307,5.0,5.0,86,0.00,-SN,OVC,0.00,WeatherDisplay:10.37,2013-01-21 13:56:00,
2013-01-21 09:01:00,11.9,8.5,30.06,NW,307,3.0,6.0,86,0.00,-SN,OVC,0.00,WeatherDisplay:10.37,2013-01-21 14:01:00,
2013-01-21 09:06:00,11.9,8.5,30.06,NW,311,3.0,7.0,86,0.00,-SN,OVC,0.00,WeatherDisplay:10.37,2013-01-21 14:06:00,
2013-01-21 09:11:00,11.9,8.5,30.06,NW,313,5.0,7.0,86,0.00,-SN,OVC,0.00,WeatherDisplay:10.37,2013-01-21 14:11:00,
2013-01-21 09:16:00,11.8,8.4,30.06,NW,310,5.0,8.0,86,0.00,-SN,OVC,0.00,WeatherDisplay:10.37,2013-01-21 14:16:00,
2013-01-21 09:21:00,11.8,8.4,30.07,NW,310,3.0,7.0,86,0.00,-SN,OVC,0.00,WeatherDisplay:10.37,2013-01-21 14:21:00,
2013-01-21 09:26:00,11.8,8.4,30.07,NW,315,6.0,9.0,86,0.00,-SN,OVC,0.00,WeatherDisplay:10.37,2013-01-21 14:26:00,
2013-01-21 09:36:00,11.9,8.5,30.07,WNW,303,5.0,7.0,86,0.00,-SN,OVC,0.00,WeatherDisplay:10.37,2013-01-21 14:36:00,
2013-01-21 09:41:00,12.0,8.6,30.07,WNW,289,5.0,10.0,86,0.00,-SN,OVC,0.00,WeatherDisplay:10.37,2013-01-21 14:41:00,
2013-01-21 09:46:00,12.0,8.6,30.07,WNW,291,7.0,10.0,86,0.00,-SN,OVC,0.00,WeatherDisplay:10.37,2013-01-21 14:46:00,
2013-01-21 09:51:00,12.0,8.6,30.08,WNW,300,5.0,8.0,86,0.00,-SN,OVC,0.00,WeatherDisplay:10.37,2013-01-21 14:51:00,
2013-01-21 09:56:00,12.1,8.7,30.08,WNW,300,9.0,12.0,86,0.00,-SN,OVC,0.00,WeatherDisplay:10.37,2013-01-21 14:56:00,
2013-01-21 10:01:00,11.8,8.4,30.08,WNW,302,9.0,13.0,86,0.00,,OVC,0.00,WeatherDisplay:10.37,2013-01-21 15:01:00,
2013-01-21 10:06:00,11.7,8.3,30.08,NW,313,10.0,13.0,86,0.00,,OVC,0.00,WeatherDisplay:10.37,2013-01-21 15:06:00,
2013-01-21 10:11:00,11.6,8.2,30.08,NW,319,8.0,12.0,86,0.00,,OVC,0.00,WeatherDisplay:10.37,2013-01-21 15:11:00,
2013-01-21 10:16:00,11.4,8.0,30.09,NW,315,10.0,15.0,86,0.00,,OVC,0.00,WeatherDisplay:10.37,2013-01-21 15:16:00,
2013-01-21 10:21:00,11.3,7.9,30.09,NW,308,9.0,14.0,86,0.00,,OVC,0.00,WeatherDisplay:10.37,2013-01-21 15:21:00,
2013-01-21 10:26:00,11.4,8.0,30.09,NW,305,9.0,13.0,86,0.00,,OVC,0.00,WeatherDisplay:10.37,2013-01-21 15:26:00,
2013-01-21 10:31:00,11.4,8.0,30.09,NW,307,8.0,13.0,86,0.00,,OVC,0.00,WeatherDisplay:10.37,2013-01-21 15:31:00,
2013-01-21 10:36:00,11.3,7.9,30.09,NW,309,9.0,16.0,86,0.00,,OVC,0.00,WeatherDisplay:10.37,2013-01-21 15:36:00,
2013-01-21 10:41:00,11.3,7.9,30.09,NW,306,8.0,12.0,86,0.00,,OVC,0.00,WeatherDisplay:10.37,2013-01-21 15:41:00,
2013-01-21 10:46:00,11.3,7.9,30.09,NW,307,9.0,12.0,86,0.00,,OVC,0.00,WeatherDisplay:10.37,2013-01-21 15:46:00,
2013-01-21 10:51:00,11.3,7.9,30.09,NW,306,10.0,15.0,86,0.00,,OVC,0.00,WeatherDisplay:10.37,2013-01-21 15:51:00,
2013-01-21 10:56:00,11.1,7.5,30.09,NW,311,12.0,17.0,85,0.00,,OVC,0.00,WeatherDisplay:10.37,2013-01-21 15:56:00,
2013-01-21 11:01:00,11.2,7.6,30.09,NW,311,8.0,12.0,85,0.00,-SN,OVC,0.00,WeatherDisplay:10.37,2013-01-21 16:01:00,
2013-01-21 11:06:00,11.4,7.8,30.09,WNW,301,10.0,16.0,85,0.00,-SN,OVC,0.00,WeatherDisplay:10.37,2013-01-21 16:06:00,
2013-01-21 11:11:00,11.4,7.8,30.09,WNW,299,9.0,14.0,85,0.00,-SN,OVC,0.00,WeatherDisplay:10.37,2013-01-21 16:11:00,
2013-01-21 11:16:00,11.6,8.0,30.09,WNW,299,10.0,14.0,85,0.00,-SN,OVC,0.00,WeatherDisplay:10.37,2013-01-21 16:16:00,
2013-01-21 11:21:00,11.4,7.8,30.09,WNW,302,8.0,13.0,85,0.00,-SN,OVC,0.00,WeatherDisplay:10.37,2013-01-21 16:21:00,
2013-01-21 11:26:00,11.3,7.7,30.09,NW,319,8.0,10.0,85,0.00,-SN,OVC,0.00,WeatherDisplay:10.37,2013-01-21 16:26:00,
2013-01-21 11:31:00,11.0,7.4,30.08,NW,323,9.0,14.0,85,0.00,-SN,OVC,0.00,WeatherDisplay:10.37,2013-01-21 16:31:00,
2013-01-21 11:36:00,10.9,7.2,30.09,NW,315,9.0,12.0,85,0.00,-SN,OVC,0.00,WeatherDisplay:10.37,2013-01-21 16:36:00,
2013-01-21 11:41:00,10.9,7.3,30.09,NW,307,10.0,15.0,85,0.00,-SN,OVC,0.00,WeatherDisplay:10.37,2013-01-21 16:41:00,
2013-01-21 11:46:00,10.9,7.3,30.09,WNW,297,8.0,13.0,85,0.00,-SN,OVC,0.00,WeatherDisplay:10.37,2013-01-21 16:46:00,
2013-01-21 11:51:00,11.1,7.5,30.08,WNW,297,7.0,10.0,85,0.00,-SN,OVC,0.00,WeatherDisplay:10.37,2013-01-21 16:51:00,
2013-01-21 11:56:00,11.2,7.6,30.08,WNW,296,8.0,13.0,85,0.00,-SN,OVC,0.00,WeatherDisplay:10.37,2013-01-21 16:56:00,
2013-01-21 12:01:00,11.3,7.7,30.09,NW,306,10.0,13.0,85,0.00,-SN,OVC,0.00,WeatherDisplay:10.37,2013-01-21 17:01:00,
2013-01-21 12:06:00,10.9,7.0,30.08,NW,311,10.0,14.0,84,0.00,-SN,OVC,0.00,WeatherDisplay:10.37,2013-01-21 17:06:00,
2013-01-21 12:11:00,10.7,7.1,30.08,NW,309,9.0,13.0,85,0.00,-SN,OVC,0.00,WeatherDisplay:10.37,2013-01-21 17:11:00,
2013-01-21 12:16:00,10.7,7.1,30.08,WNW,298,12.0,16.0,85,0.00,-SN,OVC,0.00,WeatherDisplay:10.37,2013-01-21 17:16:00,
2013-01-21 12:21:00,10.7,7.1,30.08,WNW,295,10.0,12.0,85,0.00,-SN,OVC,0.00,WeatherDisplay:10.37,2013-01-21 17:21:00,
2013-01-21 12:26:00,10.7,7.1,30.08,WNW,298,7.0,12.0,85,0.00,-SN,OVC,0.00,WeatherDisplay:10.37,2013-01-21 17:26:00,
2013-01-21 12:31:00,10.7,7.1,30.08,WNW,294,8.0,12.0,85,0.00,-SN,OVC,0.00,WeatherDisplay:10.37,2013-01-21 17:31:00,
2013-01-21 12:36:00,10.8,7.4,30.08,WNW,289,7.0,12.0,86,0.00,-SN,OVC,0.00,WeatherDisplay:10.37,2013-01-21 17:36:00,
2013-01-21 12:41:00,10.7,7.1,30.07,WNW,286,10.0,13.0,85,0.00,-SN,OVC,0.00,WeatherDisplay:10.37,2013-01-21 17:41:00,
2013-01-21 12:46:00,10.6,7.0,30.07,WNW,286,7.0,12.0,85,0.00,-SN,OVC,0.00,WeatherDisplay:10.37,2013-01-21 17:46:00,
2013-01-21 12:51:00,10.6,7.0,30.07,WNW,292,6.0,12.0,85,0.00,-SN,OVC,0.00,WeatherDisplay:10.37,2013-01-21 17:51:00,
2013-01-21 12:56:00,10.6,7.0,30.07,WNW,295,10.0,14.0,85,0.00,-SN,OVC,0.00,WeatherDisplay:10.37,2013-01-21 17:56:00,
2013-01-21 13:01:00,10.5,6.9,30.07,WNW,291,10.0,13.0,85,0.00,-SN,OVC,0.00,WeatherDisplay:10.37,2013-01-21 18:01:00,
2013-01-21 13:06:00,10.6,7.2,30.07,WNW,291,8.0,12.0,86,0.00,-SN,OVC,0.00,WeatherDisplay:10.37,2013-01-21 18:06:00,
2013-01-21 13:11:00,10.7,7.3,30.07,WNW,292,8.0,12.0,86,0.00,-SN,OVC,0.00,WeatherDisplay:10.37,2013-01-21 18:11:00,
2013-01-21 13:16:00,10.8,7.4,30.07,WNW,288,6.0,9.0,86,0.00,-SN,OVC,0.00,WeatherDisplay:10.37,2013-01-21 18:16:00,
2013-01-21 13:21:00,10.8,7.4,30.07,WNW,288,10.0,18.0,86,0.00,-SN,OVC,0.00,WeatherDisplay:10.37,2013-01-21 18:21:00,
2013-01-21 13:26:00,10.5,6.9,30.07,WNW,284,8.0,12.0,85,0.00,-SN,OVC,0.00,WeatherDisplay:10.37,2013-01-21 18:26:00,
2013-01-21 13:31:00,10.2,6.6,30.07,WNW,286,10.0,14.0,85,0.00,-SN,OVC,0.00,WeatherDisplay:10.37,2013-01-21 18:31:00,
2013-01-21 13:36:00,10.3,6.7,30.07,WNW,288,8.0,12.0,85,0.00,-SN,OVC,0.00,WeatherDisplay:10.37,2013-01-21 18:36:00,
2013-01-21 13:41:00,10.1,6.5,30.07,WNW,287,10.0,14.0,85,0.00,-SN,OVC,0.00,WeatherDisplay:10.37,2013-01-21 18:41:00,
2013-01-21 13:46:00,10.1,6.7,30.07,WNW,285,7.0,13.0,86,0.00,-SN,OVC,0.00,WeatherDisplay:10.37,2013-01-21 18:46:00,
2013-01-21 13:51:00,10.2,6.8,30.07,West,274,8.0,16.0,86,0.00,-SN,OVC,0.00,WeatherDisplay:10.37,2013-01-21 18:51:00,
2013-01-21 13:56:00,9.9,6.6,30.07,West,266,10.0,16.0,86,0.00,-SN,OVC,0.00,WeatherDisplay:10.37,2013-01-21 18:56:00,
2013-01-21 14:01:00,9.6,6.3,30.07,West,281,10.0,20.0,86,0.00,-SN,OVC,0.00,WeatherDisplay:10.37,2013-01-21 19:01:00,
2013-01-21 14:11:00,9.6,6.0,30.07,WNW,288,9.0,20.0,85,0.00,-SN,OVC,0.00,WeatherDisplay:10.37,2013-01-21 19:11:00,
2013-01-21 14:16:00,9.7,6.3,30.07,WNW,286,9.0,15.0,86,0.00,-SN,OVC,0.00,WeatherDisplay:10.37,2013-01-21 19:16:00,
2013-01-21 14:21:00,9.8,6.5,30.07,WNW,285,8.0,12.0,86,0.00,-SN,OVC,0.00,WeatherDisplay:10.37,2013-01-21 19:21:00,
2013-01-21 14:26:00,10.0,6.6,30.08,WNW,283,7.0,14.0,86,0.00,-SN,OVC,0.00,WeatherDisplay:10.37,2013-01-21 19:26:00,
2013-01-21 14:31:00,10.0,6.4,30.08,West,280,5.0,10.0,85,0.00,-SN,OVC,0.00,WeatherDisplay:10.37,2013-01-21 19:31:00,
2013-01-21 14:36:00,10.0,6.6,30.08,WNW,288,9.0,13.0,86,0.00,-SN,OVC,0.00,WeatherDisplay:10.37,2013-01-21 19:36:00,
2013-01-21 14:41:00,9.7,6.1,30.08,WNW,292,9.0,17.0,85,0.00,-SN,OVC,0.00,WeatherDisplay:10.37,2013-01-21 19:41:00,
2013-01-21 14:46:00,9.5,5.9,30.08,WNW,285,12.0,20.0,85,0.00,-SN,OVC,0.00,WeatherDisplay:10.37,2013-01-21 19:46:00,
2013-01-21 14:51:00,9.3,5.5,30.08,WNW,283,14.0,17.0,84,0.00,-SN,OVC,0.00,WeatherDisplay:10.37,2013-01-21 19:51:00,
2013-01-21 14:56:00,9.1,5.2,30.08,WNW,290,8.0,15.0,84,0.00,-SN,OVC,0.00,WeatherDisplay:10.37,2013-01-21 19:56:00,
2013-01-21 15:01:00,9.1,5.5,30.08,WNW,292,9.0,15.0,85,0.00,-SN,OVC,0.00,WeatherDisplay:10.37,2013-01-21 20:01:00,
2013-01-21 15:11:00,8.9,5.0,30.09,WNW,293,10.0,15.0,84,0.00,-SN,OVC,0.00,WeatherDisplay:10.37,2013-01-21 20:11:00,
2013-01-21 15:16:00,8.9,5.1,30.09,WNW,288,10.0,16.0,84,0.00,-SN,OVC,0.00,WeatherDisplay:10.37,2013-01-21 20:16:00,
2013-01-21 15:21:00,9.0,5.1,30.09,WNW,286,8.0,14.0,84,0.00,-SN,OVC,0.00,WeatherDisplay:10.37,2013-01-21 20:21:00,
2013-01-21 15:31:00,8.7,4.6,30.09,WNW,298,10.0,14.0,83,0.00,-SN,OVC,0.00,WeatherDisplay:10.37,2013-01-21 20:31:00,
2013-01-21 15:36:00,8.4,4.6,30.10,WNW,296,10.0,14.0,84,0.00,-SN,OVC,0.00,WeatherDisplay:10.37,2013-01-21 20:36:00,
2013-01-21 15:41:00,8.3,4.5,30.10,WNW,292,8.0,13.0,84,0.00,-SN,OVC,0.00,WeatherDisplay:10.37,2013-01-21 20:41:00,
2013-01-21 15:46:00,8.3,4.5,30.10,WNW,289,8.0,13.0,84,0.00,-SN,OVC,0.00,WeatherDisplay:10.37,2013-01-21 20:46:00,
2013-01-21 15:51:00,8.4,4.5,30.10,WNW,291,12.0,16.0,84,0.00,-SN,OVC,0.00,WeatherDisplay:10.37,2013-01-21 20:51:00,
2013-01-21 15:56:00,8.4,4.6,30.10,WNW,285,8.0,14.0,84,0.00,-SN,OVC,0.00,WeatherDisplay:10.37,2013-01-21 20:56:00,
2013-01-21 16:01:00,8.5,4.6,30.11,WNW,286,8.0,13.0,84,0.00,-SN,OVC,0.00,WeatherDisplay:10.37,2013-01-21 21:01:00,
2013-01-21 16:06:00,8.5,4.7,30.10,WNW,301,8.0,13.0,84,0.00,-SN,OVC,0.00,WeatherDisplay:10.37,2013-01-21 21:06:00,
2013-01-21 16:11:00,8.3,4.5,30.11,WNW,299,10.0,15.0,84,0.00,-SN,OVC,0.00,WeatherDisplay:10.37,2013-01-21 21:11:00,
2013-01-21 16:16:00,8.2,4.4,30.11,WNW,296,8.0,13.0,84,0.00,-SN,OVC,0.00,WeatherDisplay:10.37,2013-01-21 21:16:00,
2013-01-21 16:21:00,8.2,4.3,30.11,WNW,292,8.0,12.0,84,0.00,-SN,OVC,0.00,WeatherDisplay:10.37,2013-01-21 21:21:00,
2013-01-21 16:26:00,8.1,4.5,30.11,WNW,296,8.0,14.0,85,0.00,-SN,OVC,0.00,WeatherDisplay:10.37,2013-01-21 21:26:00,
2013-01-21 16:31:00,7.9,4.3,30.11,WNW,293,8.0,13.0,85,0.00,-SN,OVC,0.00,WeatherDisplay:10.37,2013-01-21 21:31:00,
2013-01-21 16:36:00,7.8,4.2,30.11,WNW,290,12.0,14.0,85,0.00,-SN,OVC,0.00,WeatherDisplay:10.37,2013-01-21 21:36:00,
2013-01-21 16:41:00,7.5,3.9,30.11,WNW,298,9.0,14.0,85,0.00,-SN,OVC,0.00,WeatherDisplay:10.37,2013-01-21 21:41:00,
2013-01-21 16:46:00,7.5,4.0,30.11,WNW,299,9.0,12.0,85,0.00,-SN,OVC,0.00,WeatherDisplay:10.37,2013-01-21 21:46:00,
2013-01-21 16:51:00,7.5,3.9,30.11,WNW,297,6.0,9.0,85,0.00,-SN,OVC,0.00,WeatherDisplay:10.37,2013-01-21 21:51:00,
2013-01-21 17:01:00,7.7,4.1,30.11,WNW,286,7.0,12.0,85,0.00,-SN,OVC,0.00,WeatherDisplay:10.37,2013-01-21 22:01:00,
2013-01-21 17:06:00,7.7,4.1,30.11,WNW,289,9.0,15.0,85,0.00,-SN,OVC,0.00,WeatherDisplay:10.37,2013-01-21 22:06:00,
2013-01-21 17:11:00,7.7,4.1,30.11,WNW,290,10.0,14.0,85,0.00,-SN,OVC,0.00,WeatherDisplay:10.37,2013-01-21 22:11:00,
2013-01-21 17:16:00,7.7,3.9,30.11,WNW,294,10.0,14.0,84,0.00,-SN,OVC,0.00,WeatherDisplay:10.37,2013-01-21 22:16:00,
2013-01-21 17:21:00,7.6,3.8,30.12,WNW,301,10.0,15.0,84,0.00,-SN,OVC,0.00,WeatherDisplay:10.37,2013-01-21 22:21:00,
2013-01-21 17:26:00,7.5,3.9,30.12,NW,304,8.0,12.0,85,0.00,-SN,OVC,0.00,WeatherDisplay:10.37,2013-01-21 22:26:00,
2013-01-21 17:36:00,7.5,3.7,30.12,WNW,291,8.0,12.0,84,0.00,-SN,OVC,0.00,WeatherDisplay:10.37,2013-01-21 22:36:00,
2013-01-21 17:41:00,7.5,3.9,30.12,WNW,292,7.0,14.0,85,0.00,-SN,OVC,0.00,WeatherDisplay:10.37,2013-01-21 22:41:00,
2013-01-21 17:46:00,7.4,3.8,30.12,WNW,294,8.0,13.0,85,0.00,-SN,OVC,0.00,WeatherDisplay:10.37,2013-01-21 22:46:00,
2013-01-21 17:51:00,7.3,3.7,30.12,WNW,290,9.0,14.0,85,0.00,-SN,OVC,0.00,WeatherDisplay:10.37,2013-01-21 22:51:00,
2013-01-21 18:01:00,7.1,3.5,30.12,WNW,287,6.0,12.0,85,0.00,-SN,OVC,0.00,WeatherDisplay:10.37,2013-01-21 23:01:00,
2013-01-21 18:06:00,7.0,3.4,30.13,WNW,289,5.0,12.0,85,0.00,-SN,OVC,0.00,WeatherDisplay:10.37,2013-01-21 23:06:00,
2013-01-21 18:11:00,7.0,3.2,30.13,WNW,293,7.0,10.0,84,0.00,-SN,OVC,0.00,WeatherDisplay:10.37,2013-01-21 23:11:00,
2013-01-21 18:16:00,7.0,3.2,30.13,WNW,300,8.0,12.0,84,0.00,-SN,OVC,0.00,WeatherDisplay:10.37,2013-01-21 23:16:00,
2013-01-21 18:21:00,6.9,3.1,30.13,WNW,297,8.0,12.0,84,0.00,-SN,OVC,0.00,WeatherDisplay:10.37,2013-01-21 23:21:00,
2013-01-21 18:26:00,6.8,3.2,30.13,WNW,295,6.0,12.0,85,0.00,-SN,OVC,0.00,WeatherDisplay:10.37,2013-01-21 23:26:00,
2013-01-21 18:36:00,6.7,3.1,30.13,WNW,294,6.0,8.0,85,0.00,-SN,OVC,0.00,WeatherDisplay:10.37,2013-01-21 23:36:00,
2013-01-21 18:41:00,6.8,3.2,30.13,WNW,303,7.0,8.0,85,0.00,-SN,OVC,0.00,WeatherDisplay:10.37,2013-01-21 23:41:00,
2013-01-21 18:46:00,6.7,3.1,30.13,NW,306,5.0,7.0,85,0.00,-SN,OVC,0.00,WeatherDisplay:10.37,2013-01-21 23:46:00,
2013-01-21 18:51:00,6.7,3.1,30.13,WNW,301,3.0,7.0,85,0.00,-SN,OVC,0.00,WeatherDisplay:10.37,2013-01-21 23:51:00,
2013-01-21 18:56:00,6.6,3.1,30.13,WNW,294,3.0,6.0,85,0.00,-SN,OVC,0.00,WeatherDisplay:10.37,2013-01-21 23:56:00,
2013-01-21 19:01:00,6.6,3.1,30.14,WNW,294,2.0,5.0,85,0.00,-SN,OVC,0.00,WeatherDisplay:10.37,2013-01-22 00:01:00,
2013-01-21 19:06:00,6.7,3.1,30.14,WNW,294,3.0,7.0,85,0.00,-SN,OVC,0.00,WeatherDisplay:10.37,2013-01-22 00:06:00,
2013-01-21 19:11:00,6.7,3.1,30.14,WNW,301,5.0,9.0,85,0.00,-SN,OVC,0.00,WeatherDisplay:10.37,2013-01-22 00:11:00,
2013-01-21 19:16:00,6.7,3.1,30.14,WNW,299,5.0,8.0,85,0.00,-SN,OVC,0.00,WeatherDisplay:10.37,2013-01-22 00:16:00,
2013-01-21 19:21:00,6.7,3.1,30.14,WNW,291,5.0,10.0,85,0.00,-SN,OVC,0.00,WeatherDisplay:10.37,2013-01-22 00:21:00,
2013-01-21 19:26:00,6.7,3.2,30.14,WNW,292,6.0,9.0,85,0.00,-SN,OVC,0.00,WeatherDisplay:10.37,2013-01-22 00:26:00,
2013-01-21 19:31:00,6.8,3.2,30.14,WNW,293,5.0,9.0,85,0.00,-SN,OVC,0.00,WeatherDisplay:10.37,2013-01-22 00:31:00,
2013-01-21 19:36:00,6.8,3.2,30.14,WNW,292,6.0,8.0,85,0.00,-SN,OVC,0.00,WeatherDisplay:10.37,2013-01-22 00:36:00,
2013-01-21 19:41:00,6.8,3.2,30.14,WNW,292,6.0,10.0,85,0.00,-SN,OVC,0.00,WeatherDisplay:10.37,2013-01-22 00:41:00,
2013-01-21 19:46:00,6.8,3.2,30.14,WNW,292,7.0,13.0,85,0.00,-SN,OVC,0.00,WeatherDisplay:10.37,2013-01-22 00:46:00,
2013-01-21 19:51:00,6.7,3.2,30.14,WNW,292,7.0,12.0,85,0.00,-SN,OVC,0.00,WeatherDisplay:10.37,2013-01-22 00:51:00,
2013-01-21 19:56:00,6.7,3.1,30.14,WNW,291,9.0,15.0,85,0.00,-SN,OVC,0.00,WeatherDisplay:10.37,2013-01-22 00:56:00,
2013-01-21 20:01:00,6.6,3.0,30.14,WNW,295,9.0,14.0,85,0.00,-SN,OVC,0.00,WeatherDisplay:10.37,2013-01-22 01:01:00,
2013-01-21 20:06:00,6.6,3.0,30.14,WNW,296,8.0,12.0,85,0.00,-SN,OVC,0.00,WeatherDisplay:10.37,2013-01-22 01:06:00,
2013-01-21 20:11:00,6.5,3.0,30.14,WNW,299,9.0,16.0,85,0.00,-SN,OVC,0.00,WeatherDisplay:10.37,2013-01-22 01:11:00,
2013-01-21 20:16:00,6.4,2.9,30.14,WNW,295,9.0,14.0,85,0.00,-SN,OVC,0.00,WeatherDisplay:10.37,2013-01-22 01:16:00,
2013-01-21 20:21:00,6.4,2.9,30.14,WNW,289,10.0,14.0,85,0.00,-SN,OVC,0.00,WeatherDisplay:10.37,2013-01-22 01:21:00,
2013-01-21 20:26:00,6.4,2.8,30.15,WNW,294,8.0,13.0,85,0.00,-SN,OVC,0.00,WeatherDisplay:10.37,2013-01-22 01:26:00,
2013-01-21 20:31:00,6.3,2.8,30.15,WNW,297,8.0,12.0,85,0.00,-SN,OVC,0.00,WeatherDisplay:10.37,2013-01-22 01:31:00,
2013-01-21 20:36:00,6.2,2.7,30.15,WNW,295,7.0,12.0,85,0.00,-SN,OVC,0.00,WeatherDisplay:10.37,2013-01-22 01:36:00,
2013-01-21 20:41:00,6.2,2.7,30.15,WNW,296,7.0,10.0,85,0.00,-SN,OVC,0.00,WeatherDisplay:10.37,2013-01-22 01:41:00,
2013-01-21 20:46:00,6.2,2.7,30.15,WNW,299,6.0,8.0,85,0.00,-SN,OVC,0.00,WeatherDisplay:10.37,2013-01-22 01:46:00,
2013-01-21 20:51:00,6.1,2.6,30.15,WNW,302,12.0,18.0,85,0.00,-SN,OVC,0.00,WeatherDisplay:10.37,2013-01-22 01:51:00,
2013-01-21 20:56:00,6.1,2.6,30.16,WNW,297,8.0,14.0,85,0.00,-SN,OVC,0.00,WeatherDisplay:10.37,2013-01-22 01:56:00,
2013-01-21 21:01:00,6.0,2.5,30.16,WNW,297,8.0,12.0,85,0.00,-SN,OVC,0.00,WeatherDisplay:10.37,2013-01-22 02:01:00,
2013-01-21 21:06:00,5.8,2.3,30.16,WNW,303,7.0,13.0,85,0.00,-SN,OVC,0.00,WeatherDisplay:10.37,2013-01-22 02:06:00,
2013-01-21 21:11:00,5.6,1.8,30.16,NW,305,9.0,14.0,84,0.00,-SN,OVC,0.00,WeatherDisplay:10.37,2013-01-22 02:11:00,
2013-01-21 21:16:00,5.5,1.7,30.16,NW,306,9.0,14.0,84,0.00,-SN,OVC,0.00,WeatherDisplay:10.37,2013-01-22 02:16:00,
2013-01-21 21:21:00,5.4,1.6,30.16,WNW,297,7.0,12.0,84,0.00,-SN,OVC,0.00,WeatherDisplay:10.37,2013-01-22 02:21:00,
2013-01-21 21:26:00,5.3,1.5,30.16,WNW,297,8.0,13.0,84,0.00,-SN,OVC,0.00,WeatherDisplay:10.37,2013-01-22 02:26:00,
2013-01-21 21:31:00,5.3,1.5,30.17,WNW,297,10.0,16.0,84,0.00,-SN,OVC,0.00,WeatherDisplay:10.37,2013-01-22 02:31:00,
2013-01-21 21:36:00,5.2,1.4,30.17,WNW,297,13.0,17.0,84,0.00,-SN,OVC,0.00,WeatherDisplay:10.37,2013-01-22 02:36:00,
2013-01-21 21:41:00,5.1,1.3,30.17,WNW,292,13.0,16.0,84,0.00,-SN,OVC,0.00,WeatherDisplay:10.37,2013-01-22 02:41:00,
2013-01-21 21:46:00,5.1,1.3,30.17,WNW,291,10.0,15.0,84,0.00,-SN,OVC,0.00,WeatherDisplay:10.37,2013-01-22 02:46:00,
2013-01-21 21:51:00,5.0,1.2,30.17,WNW,298,10.0,14.0,84,0.00,-SN,OVC,0.00,WeatherDisplay:10.37,2013-01-22 02:51:00,
2013-01-21 21:56:00,4.9,1.1,30.17,NW,304,9.0,14.0,84,0.00,-SN,OVC,0.00,WeatherDisplay:10.37,2013-01-22 02:56:00,
2013-01-21 22:01:00,4.8,1.0,30.17,WNW,302,9.0,16.0,84,0.00,-SN,OVC,0.00,WeatherDisplay:10.37,2013-01-22 03:01:00,
2013-01-21 22:06:00,4.7,1.0,30.17,WNW,302,12.0,15.0,84,0.00,-SN,OVC,0.00,WeatherDisplay:10.37,2013-01-22 03:06:00,
2013-01-21 22:11:00,4.7,3.4,30.17,WNW,297,7.0,13.0,94,0.00,-SN,OVC,0.00,WeatherDisplay:10.37,2013-01-22 03:11:00,
2013-01-21 22:16:00,4.6,0.8,30.18,WNW,297,9.0,16.0,84,0.00,-SN,OVC,0.00,WeatherDisplay:10.37,2013-01-22 03:16:00,
2013-01-21 22:21:00,4.4,0.6,30.18,WNW,300,12.0,15.0,84,0.00,-SN,OVC,0.00,WeatherDisplay:10.37,2013-01-22 03:21:00,
2013-01-21 22:26:00,4.3,0.5,30.18,WNW,299,9.0,13.0,84,0.00,-SN,OVC,0.00,WeatherDisplay:10.37,2013-01-22 03:26:00,
2013-01-21 22:31:00,4.2,0.4,30.18,NW,305,10.0,14.0,84,0.00,-SN,OVC,0.00,WeatherDisplay:10.37,2013-01-22 03:31:00,
2013-01-21 22:36:00,4.1,0.3,30.18,NW,308,9.0,13.0,84,0.00,-SN,OVC,0.00,WeatherDisplay:10.37,2013-01-22 03:36:00,
2013-01-21 22:41:00,4.1,0.3,30.18,NW,305,7.0,12.0,84,0.00,-SN,OVC,0.00,WeatherDisplay:10.37,2013-01-22 03:41:00,
2013-01-21 22:46:00,4.0,0.2,30.18,WNW,299,9.0,15.0,84,0.00,-SN,OVC,0.00,WeatherDisplay:10.37,2013-01-22 03:46:00,
2013-01-21 22:51:00,4.0,0.2,30.19,NW,308,9.0,12.0,84,0.00,-SN,OVC,0.00,WeatherDisplay:10.37,2013-01-22 03:51:00,
2013-01-21 22:56:00,3.9,0.1,30.19,NW,310,7.0,12.0,84,0.00,-SN,OVC,0.00,WeatherDisplay:10.37,2013-01-22 03:56:00,
2013-01-21 23:01:00,3.8,0.0,30.19,NW,313,10.0,14.0,84,0.00,-SN,OVC,0.00,WeatherDisplay:10.37,2013-01-22 04:01:00,
2013-01-21 23:06:00,3.7,-0.3,30.19,NW,315,8.0,15.0,83,0.00,-SN,OVC,0.00,WeatherDisplay:10.37,2013-01-22 04:06:00,
2013-01-21 23:11:00,3.6,-0.4,30.20,NW,311,9.0,14.0,83,0.00,-SN,OVC,0.00,WeatherDisplay:10.37,2013-01-22 04:11:00,
2013-01-21 23:16:00,3.5,-0.5,30.20,NW,309,8.0,13.0,83,0.00,-SN,OVC,0.00,WeatherDisplay:10.37,2013-01-22 04:16:00,
2013-01-21 23:21:00,3.5,-0.2,30.20,NW,312,9.0,16.0,84,0.00,-SN,OVC,0.00,WeatherDisplay:10.37,2013-01-22 04:21:00,
2013-01-21 23:26:00,3.5,-0.5,30.19,NW,314,8.0,12.0,83,0.00,-SN,OVC,0.00,WeatherDisplay:10.37,2013-01-22 04:26:00,
2013-01-21 23:31:00,3.4,-0.6,30.19,NW,317,8.0,14.0,83,0.00,-SN,OVC,0.00,WeatherDisplay:10.37,2013-01-22 04:31:00,
2013-01-21 23:36:00,3.2,-0.8,30.20,NW,315,9.0,15.0,83,0.00,-SN,OVC,0.00,WeatherDisplay:10.37,2013-01-22 04:36:00,
2013-01-21 23:41:00,3.2,-0.8,30.20,NW,312,10.0,13.0,83,0.00,-SN,OVC,0.00,WeatherDisplay:10.37,2013-01-22 04:41:00,
2013-01-21 23:46:00,3.1,-0.9,30.20,NW,309,9.0,12.0,83,0.00,-SN,OVC,0.00,WeatherDisplay:10.37,2013-01-22 04:46:00,
2013-01-21 23:51:00,3.2,-0.6,30.20,NW,305,7.0,10.0,84,0.00,-SN,OVC,0.00,WeatherDisplay:10.37,2013-01-22 04:51:00,
2013-01-21 23:56:00,3.1,-0.9,30.20,NW,306,7.0,10.0,83,0.00,-SN,OVC,0.00,WeatherDisplay:10.37,2013-01-22 04:56:00,